Monday, December 18, 2017, 12:16 AM EST
Back to Local

KABE, Lehigh Valley International Airport

Location: Allentown, PA, United States Lat: 40.65
Local Time: 12:16 AM EST ( 5:16 GMT) Lon: -75.45
Time Zone: US/Eastern Elev: 393 ft

Show me the last for .
Show Decoded

2017-12-17 23:51 METAR KABE 180451Z 06005KT 8SM FEW043 FEW060 OVC095 01/M03 A3016 RMK AO2 SLP218
                 T00111033 400331011 =
2017-12-17 22:51 METAR KABE 180351Z 05004KT 9SM BKN070 OVC100 01/M03 A3018 RMK AO2 SLP224
                 T00111033 =
2017-12-17 21:51 METAR KABE 180251Z 06004KT 9SM OVC110 01/M03 A3020 RMK AO2 SLP231 T00061033
                 58011 =
2017-12-17 20:51 METAR KABE 180151Z 06003KT 9SM BKN120 01/M04 A3021 RMK AO2 SLP236 T00061039 =
2017-12-17 19:51 METAR KABE 180051Z 05004KT 9SM CLR 01/M04 A3022 RMK AO2 SLP238 T00061039 =
2017-12-17 18:51 METAR KABE 172351Z 08003KT 10SM CLR 01/M04 A3023 RMK AO2 SLP242 T00111039 10033
                 20006 53012 =
2017-12-17 17:51 METAR KABE 172251Z 07004KT 10SM CLR 02/M04 A3022 RMK AO2 SLP237 T00171039 =
2017-12-17 16:51 METAR KABE 172151Z 05005KT 10SM CLR 02/M04 A3021 RMK AO2 SLP233 T00171039 =
2017-12-17 15:51 METAR KABE 172051Z 06004KT 10SM CLR 02/M04 A3020 RMK AO2 SLP229 T00221039 56013
                 =
2017-12-17 14:51 METAR KABE 171951Z 35003KT 10SM CLR 03/M04 A3021 RMK AO2 SLP234 T00281044 =
2017-12-17 13:51 METAR KABE 171851Z 35004KT 10SM CLR 02/M04 A3021 RMK AO2 SLP234 T00221044 =
2017-12-17 12:51 METAR KABE 171751Z 36003KT 10SM CLR 02/M04 A3023 RMK AO2 SLP242 T00171044 10022
                 21011 58014 =
2017-12-17 11:51 METAR KABE 171651Z 03003KT 10SM CLR 02/M05 A3026 RMK AO2 SLP250 T00221050 =
2017-12-17 10:51 METAR KABE 171551Z 04004KT 10SM CLR 01/M04 A3028 RMK AO2 SLP258 T00111044 =
2017-12-17 09:51 METAR KABE 171451Z 04005KT 10SM CLR 00/M05 A3028 RMK AO2 SLP256 T00001050 51009
                 =
2017-12-17 08:51 METAR KABE 171351Z 05003KT 10SM FEW048 M01/M06 A3027 RMK AO2 SLP255 T10061056 =
2017-12-17 07:51 METAR KABE 171251Z 07003KT 10SM OVC048 M01/M06 A3027 RMK AO2 SLP252 T10061056 =
2017-12-17 06:51 METAR KABE 171151Z 05005KT 10SM OVC050 00/M06 A3025 RMK AO2 SLP247 T00001056
                 10017 21006 53005 =
2017-12-17 05:51 METAR KABE 171051Z 07004KT 10SM OVC050 M01/M05 A3023 RMK AO2 SLP241 T10061050 =
2017-12-17 04:51 METAR KABE 170951Z 06005KT 10SM OVC050 00/M04 A3022 RMK AO2 SLP238 T00001044 =
2017-12-17 03:51 METAR KABE 170851Z 06005KT 10SM OVC055 00/M04 A3023 RMK AO2 SLP242 T00001044
                 51014 =
2017-12-17 02:51 METAR KABE 170751Z AUTO 00000KT 10SM OVC050 01/M04 A3023 RMK AO2 SLP239
                 T00061039 =
2017-12-17 01:51 METAR KABE 170651Z 06003KT 10SM FEW033 OVC055 01/M04 A3021 RMK AO2 SLP234
                 T00061039 =
2017-12-17 00:51 METAR KABE 170551Z 11003KT 10SM BKN050 OVC075 02/M04 A3019 RMK AO2 SLP228
                 T00171044 10044 20011 50012 =

Support USWX by starting your Amazon purchase here.